Aérodrome :
LOGIN :

S'inscrire | Disclaimer

   EN    FR    IT 

 










Légende :    VFR   VFR Marginal   IFR   IFR Intensif   IFR Très Intensif
Visi : 
Plafond : 
>= 8 km
>= 3000ft
5 à 8 km
1000 à 3000 ft
1500m à 5 km
500 à 1000 ft
800 à 1500m
200 à 500 ft
< 800m
< 200 ft
Symboles :   Orages  Brouillard  Fortes neiges  Fortes précipitations  Vent > 20 kt
SIGMETs :   Divers  Orages  Givrage  Turbulence  Onde Orograph.  Cendres Volcan.







- Altitude de l'aérodrome : 231 ft
- Code IATA : WTN


EGXW - RAF Waddington

DERNIER METAR :
  • 181320Z 21009KT 9999 FEW030 SCT120 OVC220 19/11 Q1013 NOSIG RMK BLU BLU

METARs EXPIRÉS :
  • 181250Z 22008KT 9999 FEW030 OVC220 18/11 Q1013 NOSIG RMK BLU BLU
  • 181224Z 22008KT 9999 FEW028 SCT046 OVC220 18/11 Q1013 NOSIG RMK BLU BLU
  • 181150Z 22006KT 9999 FEW028 BKN047 18/11 Q1014 NOSIG RMK BLU BLU
  • 181119Z 20008KT 9999 SCT045 OVC220 18/11 Q1014 BLU NOSIG RMK BLU BLU
  • 181050Z 21008KT 9999 SCT028 SCT160 BKN220 18/11 Q1014 NOSIG RMK BLU BLU

TAF TAF EGXW
Valide du 18 à 12h jusqu'au 19 à 06h UTC


181047Z 1812/1906 22008KT 9999 SCT030
PROB40
TEMPO 1902/1906 -RA BKN005
PROB30
TEMPO 1902/1906 7000 RA
Pas de NOTAMs connus pour ce terrain.
1 SIGMET publié pour la FIR London (EGTT) :
 
Orages noyés dans la masse
EGTT SIGMET 02 VALID 181036/181300 EGRR
EGTT LONDON FIR EMBD TS FCST WI N5132 W00014 - N5115 E00028 - N5020 W00038 - N5034 W00121 - N5132 W00014 TOP FL300 MOV NNE 20KT NC=



MET'MAP, la Météo Aéronautique d'un coup d'oeil ! - Copyright ORBIFLY Décembre 2007 - Disclaimer

ORBIFLY MET'MAP TEAM :

Programmation & Développement : Alexandra Zaïnal
Conception & Développement : Baudouin d'Aumeries
Co-Programmation & Développement : Marc-Olivier Méhu
Soutien technique & logistique : Manuel Goepfert

Contact : metmap@orbifly.com




SOURCES & CREDITS :

   NOAA